createdAt,value
2022-08-07T00:02:36.670Z,19.90
2022-08-07T00:05:06.464Z,19.90
2022-08-07T00:07:40.832Z,20.00
2022-08-07T00:10:26.857Z,20.00
2022-08-07T00:13:01.751Z,20.00
2022-08-07T00:15:36.119Z,20.00
2022-08-07T00:18:09.196Z,20.00
2022-08-07T00:20:50.558Z,20.00
2022-08-07T00:23:21.062Z,20.00
2022-08-07T00:26:00.362Z,20.00
2022-08-07T00:28:33.361Z,19.90
2022-08-07T00:31:06.039Z,19.90
2022-08-07T00:33:35.994Z,19.80
2022-08-07T00:36:08.833Z,19.80
2022-08-07T00:38:40.071Z,19.80
2022-08-07T00:41:14.633Z,19.80
2022-08-07T00:43:59.043Z,19.80
2022-08-07T00:46:33.046Z,19.80
2022-08-07T00:49:03.613Z,19.70
2022-08-07T00:51:57.580Z,19.70
2022-08-07T00:54:23.289Z,19.70
2022-08-07T00:56:53.222Z,19.60
2022-08-07T00:59:35.438Z,19.70
2022-08-07T01:02:14.083Z,19.70
2022-08-07T01:04:58.291Z,19.60
2022-08-07T01:07:31.093Z,19.60
2022-08-07T01:10:05.349Z,19.60
2022-08-07T01:12:53.056Z,19.60
2022-08-07T01:16:01.272Z,19.60
2022-08-07T01:18:16.839Z,19.50
2022-08-07T01:20:59.479Z,19.50
2022-08-07T01:23:38.043Z,19.50
2022-08-07T01:26:12.223Z,19.50
2022-08-07T01:28:46.272Z,19.50
2022-08-07T01:31:20.203Z,19.50
2022-08-07T01:33:55.858Z,19.40
2022-08-07T01:36:33.401Z,19.40
2022-08-07T01:39:10.231Z,19.40
2022-08-07T01:41:40.769Z,19.40
2022-08-07T01:44:28.966Z,19.40
2022-08-07T01:47:01.162Z,19.40
2022-08-07T01:49:43.411Z,19.40
2022-08-07T01:52:13.402Z,19.40
2022-08-07T01:54:48.178Z,19.40
2022-08-07T01:57:24.846Z,19.40
2022-08-07T01:59:58.785Z,19.40
2022-08-07T02:03:19.135Z,19.40
2022-08-07T02:05:47.475Z,19.40
2022-08-07T02:08:23.943Z,19.40
2022-08-07T02:10:59.590Z,19.40
2022-08-07T02:13:58.277Z,19.40
2022-08-07T02:16:28.816Z,19.50
2022-08-07T02:19:05.323Z,19.50
2022-08-07T02:21:58.836Z,19.60
2022-08-07T02:24:30.537Z,19.60
2022-08-07T02:27:03.942Z,19.60
2022-08-07T02:29:36.774Z,19.60
2022-08-07T02:32:14.591Z,19.60
2022-08-07T02:34:48.982Z,19.60
2022-08-07T02:37:21.888Z,19.60
2022-08-07T02:40:12.041Z,19.50
2022-08-07T02:42:45.132Z,19.50
2022-08-07T02:45:58.827Z,19.50
2022-08-07T02:48:10.294Z,19.50
2022-08-07T02:50:49.660Z,19.50
2022-08-07T02:53:27.807Z,19.50
2022-08-07T02:56:04.195Z,19.50
2022-08-07T02:58:39.902Z,19.60
2022-08-07T03:01:19.080Z,19.60
2022-08-07T03:04:12.677Z,19.50
2022-08-07T03:06:45.974Z,19.50
2022-08-07T03:09:43.653Z,19.50
2022-08-07T03:12:21.965Z,19.40
2022-08-07T03:14:56.422Z,19.40
2022-08-07T03:17:25.749Z,19.40
2022-08-07T03:19:56.021Z,19.30
2022-08-07T03:22:29.688Z,19.30
2022-08-07T03:25:00.910Z,19.30
2022-08-07T03:27:42.187Z,19.20
2022-08-07T03:30:20.836Z,19.30
2022-08-07T03:32:59.117Z,19.30
2022-08-07T03:35:37.960Z,19.20
2022-08-07T03:38:13.840Z,19.20
2022-08-07T03:40:44.169Z,19.30
2022-08-07T03:43:14.961Z,19.30
2022-08-07T03:45:47.816Z,19.30
2022-08-07T03:48:18.014Z,19.30
2022-08-07T03:50:55.827Z,19.30
2022-08-07T03:54:01.893Z,19.30
2022-08-07T03:56:32.821Z,19.30
2022-08-07T03:59:09.518Z,19.30
2022-08-07T04:01:47.048Z,19.30
2022-08-07T04:04:18.634Z,19.30
2022-08-07T04:06:50.866Z,19.30
2022-08-07T04:09:23.367Z,19.30
2022-08-07T04:12:24.397Z,19.30
2022-08-07T04:14:47.571Z,19.30
2022-08-07T04:17:21.560Z,19.30
2022-08-07T04:19:52.291Z,19.30
2022-08-07T04:22:28.905Z,19.30
2022-08-07T04:25:01.406Z,19.30
2022-08-07T04:27:36.172Z,19.30
2022-08-07T04:30:21.670Z,19.20
2022-08-07T04:33:09.423Z,19.20
2022-08-07T04:35:39.525Z,19.10
2022-08-07T04:38:13.220Z,19.20
2022-08-07T04:40:52.014Z,19.20
2022-08-07T04:44:12.138Z,19.20
2022-08-07T04:46:34.565Z,19.30
2022-08-07T04:49:24.615Z,19.40
2022-08-07T04:52:09.053Z,19.50
2022-08-07T04:54:53.544Z,19.50
2022-08-07T04:58:09.807Z,19.50
2022-08-07T05:00:33.242Z,19.50
2022-08-07T05:03:38.741Z,19.50
2022-08-07T05:06:20.102Z,19.50
2022-08-07T05:09:00.672Z,19.50
2022-08-07T05:11:57.262Z,19.50
2022-08-07T05:14:53.262Z,19.50
2022-08-07T05:17:52.803Z,19.60
2022-08-07T05:20:23.863Z,19.60
2022-08-07T05:22:59.336Z,19.70
2022-08-07T05:25:54.562Z,19.60
2022-08-07T05:28:23.270Z,19.70
2022-08-07T05:30:59.352Z,19.70
2022-08-07T05:33:35.389Z,19.80
2022-08-07T05:36:12.042Z,19.80
2022-08-07T05:39:00.769Z,19.90
2022-08-07T05:42:01.664Z,19.90
2022-08-07T05:44:29.655Z,19.90
2022-08-07T05:47:01.170Z,19.90
2022-08-07T05:49:40.834Z,19.90
2022-08-07T05:52:11.647Z,20.00
2022-08-07T05:54:53.472Z,20.00
2022-08-07T05:57:29.934Z,20.00
2022-08-07T06:00:02.018Z,20.10
2022-08-07T06:02:36.765Z,20.10
2022-08-07T06:05:15.571Z,20.20
2022-08-07T06:08:05.432Z,20.30
2022-08-07T06:10:38.724Z,20.30
2022-08-07T06:13:13.322Z,20.40
2022-08-07T06:15:45.768Z,20.40
2022-08-07T06:18:20.043Z,20.40
2022-08-07T06:22:16.687Z,20.40
2022-08-07T06:24:38.695Z,20.40
2022-08-07T06:26:30.595Z,20.50
2022-08-07T06:29:01.217Z,20.50
2022-08-07T06:31:38.418Z,20.50
2022-08-07T06:34:20.628Z,20.50
2022-08-07T06:36:52.358Z,20.50
2022-08-07T06:40:13.043Z,20.50
2022-08-07T06:42:19.372Z,20.50
2022-08-07T06:44:52.469Z,20.70
2022-08-07T06:47:21.515Z,20.70
2022-08-07T06:49:58.741Z,20.80
2022-08-07T06:52:35.652Z,20.80
2022-08-07T06:55:33.521Z,20.90
2022-08-07T06:58:05.490Z,21.00
2022-08-07T07:00:44.154Z,21.10
2022-08-07T07:03:17.075Z,21.20
2022-08-07T07:06:03.343Z,21.30
2022-08-07T07:08:34.834Z,21.40
2022-08-07T07:11:13.121Z,21.50
2022-08-07T07:13:58.440Z,21.60
2022-08-07T07:16:45.015Z,21.80
2022-08-07T07:19:55.976Z,22.00
2022-08-07T07:22:35.765Z,22.20
2022-08-07T07:26:32.564Z,22.40
2022-08-07T07:28:07.887Z,23.20
2022-08-07T07:31:02.279Z,24.30
2022-08-07T07:33:35.051Z,24.60
2022-08-07T07:36:13.209Z,24.60
2022-08-07T07:38:46.269Z,24.60
2022-08-07T07:41:18.834Z,24.60
2022-08-07T07:44:17.917Z,24.50
2022-08-07T07:46:55.295Z,24.30
2022-08-07T07:50:34.370Z,24.10
2022-08-07T07:52:24.552Z,24.10
2022-08-07T07:54:55.675Z,24.10
2022-08-07T07:57:51.795Z,24.10
2022-08-07T08:00:28.970Z,24.10
2022-08-07T08:03:07.953Z,24.00
2022-08-07T08:05:55.351Z,24.00
2022-08-07T08:08:36.953Z,24.00
2022-08-07T08:11:16.290Z,24.00
2022-08-07T08:13:53.989Z,23.90
2022-08-07T08:16:35.885Z,24.00
2022-08-07T08:19:29.504Z,23.90
2022-08-07T08:22:19.228Z,23.90
2022-08-07T08:25:24.844Z,23.90
2022-08-07T08:28:04.013Z,24.00
2022-08-07T08:30:42.725Z,24.00
2022-08-07T08:33:23.994Z,24.00
2022-08-07T08:35:57.031Z,24.10
2022-08-07T08:38:38.592Z,24.10
2022-08-07T08:41:31.353Z,24.20
2022-08-07T08:44:29.158Z,24.20
2022-08-07T08:47:09.992Z,24.20
2022-08-07T08:50:04.678Z,24.20
2022-08-07T08:52:53.643Z,24.30
2022-08-07T08:55:55.047Z,24.50
2022-08-07T08:58:36.739Z,24.80
2022-08-07T09:01:19.328Z,25.20
2022-08-07T09:04:01.048Z,25.40
2022-08-07T09:06:47.862Z,25.80
2022-08-07T09:09:56.792Z,26.30
2022-08-07T09:12:53.779Z,26.70
2022-08-07T09:16:22.377Z,27.00
2022-08-07T09:19:07.341Z,27.40
2022-08-07T09:24:28.424Z,27.70
2022-08-07T09:25:17.526Z,27.60
2022-08-07T09:28:02.894Z,27.50
2022-08-07T09:30:55.045Z,27.30
2022-08-07T09:33:56.624Z,26.80
2022-08-07T09:36:37.066Z,26.30
2022-08-07T09:39:54.304Z,26.40
2022-08-07T09:42:41.975Z,26.40
2022-08-07T09:47:50.261Z,26.50
2022-08-07T09:48:28.796Z,26.60
2022-08-07T09:52:09.812Z,26.60
2022-08-07T09:54:21.690Z,26.60
2022-08-07T09:57:36.900Z,26.60
2022-08-07T10:00:18.993Z,26.60
2022-08-07T10:04:06.005Z,26.70
2022-08-07T10:06:56.865Z,26.60
2022-08-07T10:10:00.740Z,26.60
2022-08-07T10:14:00.261Z,26.60
2022-08-07T10:16:50.227Z,26.50
2022-08-07T10:19:40.825Z,26.40
2022-08-07T10:22:51.029Z,26.30
2022-08-07T10:25:43.618Z,26.30
2022-08-07T10:28:45.988Z,26.30
2022-08-07T10:31:54.641Z,26.40
2022-08-07T10:34:42.506Z,26.40
2022-08-07T10:37:48.786Z,26.40
2022-08-07T10:40:30.243Z,26.50
2022-08-07T10:43:10.987Z,26.70
2022-08-07T10:45:58.177Z,26.80
2022-08-07T10:48:41.280Z,26.90
2022-08-07T10:51:39.407Z,27.00
2022-08-07T10:54:18.836Z,27.20
2022-08-07T10:57:09.772Z,27.50
2022-08-07T11:00:07.357Z,27.50
2022-08-07T11:02:49.151Z,27.50
2022-08-07T11:05:48.977Z,27.50
2022-08-07T11:08:35.097Z,27.50
2022-08-07T11:11:15.354Z,27.40
2022-08-07T11:14:44.159Z,27.40
2022-08-07T11:16:54.686Z,27.40
2022-08-07T11:19:40.109Z,27.30
2022-08-07T11:22:27.376Z,27.30
2022-08-07T11:25:14.872Z,27.30
2022-08-07T11:28:01.205Z,27.20
2022-08-07T11:30:46.669Z,27.20
2022-08-07T11:33:58.626Z,27.10
2022-08-07T11:36:40.627Z,27.10
2022-08-07T11:39:39.559Z,27.00
2022-08-07T11:42:29.781Z,26.90
2022-08-07T11:45:35.907Z,26.80
2022-08-07T11:48:31.696Z,26.80
2022-08-07T11:51:41.955Z,26.80
2022-08-07T11:54:34.898Z,26.80
2022-08-07T11:57:19.405Z,26.90
2022-08-07T12:00:19.626Z,26.90
2022-08-07T12:03:47.887Z,27.00
2022-08-07T12:06:55.308Z,27.00
2022-08-07T12:09:37.650Z,27.10
2022-08-07T12:12:12.122Z,27.10
2022-08-07T12:14:55.547Z,27.20
2022-08-07T12:17:58.978Z,27.10
2022-08-07T12:20:37.061Z,27.10
2022-08-07T12:24:07.217Z,27.10
2022-08-07T12:26:41.909Z,27.20
2022-08-07T12:29:37.923Z,27.20
2022-08-07T12:32:18.645Z,27.30
2022-08-07T12:34:53.432Z,27.30
2022-08-07T12:38:11.375Z,27.30
2022-08-07T12:40:46.351Z,27.30
2022-08-07T12:44:01.788Z,27.20
2022-08-07T12:46:26.256Z,27.30
2022-08-07T12:49:39.589Z,27.40
2022-08-07T12:52:14.350Z,27.40
2022-08-07T12:55:05.227Z,27.50
2022-08-07T12:58:00.807Z,27.50
2022-08-07T13:00:50.329Z,27.60
2022-08-07T13:04:18.992Z,27.70
2022-08-07T13:08:11.988Z,27.70
2022-08-07T13:10:44.797Z,27.70
2022-08-07T13:13:49.566Z,27.70
2022-08-07T13:16:32.567Z,27.80
2022-08-07T13:19:46.261Z,27.90
2022-08-07T13:22:28.349Z,28.00
2022-08-07T13:25:06.009Z,27.90
2022-08-07T13:28:11.141Z,28.00
2022-08-07T13:30:40.416Z,28.00
2022-08-07T13:34:33.887Z,28.10
2022-08-07T13:36:18.152Z,28.10
2022-08-07T13:38:57.909Z,28.10
2022-08-07T13:41:41.368Z,28.10
2022-08-07T13:44:13.389Z,28.00
2022-08-07T13:46:49.431Z,27.90
2022-08-07T13:50:33.596Z,27.80
2022-08-07T13:52:30.486Z,27.70
2022-08-07T13:55:10.822Z,27.70
2022-08-07T13:57:59.055Z,27.70
2022-08-07T14:00:50.605Z,27.70
2022-08-07T14:03:34.090Z,27.70
2022-08-07T14:06:18.326Z,27.60
2022-08-07T14:08:53.655Z,27.60
2022-08-07T14:11:27.065Z,27.60
2022-08-07T14:14:18.814Z,27.60
2022-08-07T14:16:53.089Z,27.60
2022-08-07T14:20:43.383Z,27.70
2022-08-07T14:22:34.312Z,27.70
2022-08-07T14:25:16.305Z,27.60
2022-08-07T14:28:12.615Z,27.60
2022-08-07T14:30:41.549Z,27.60
2022-08-07T14:33:14.925Z,27.60
2022-08-07T14:35:47.614Z,27.60
2022-08-07T14:38:30.707Z,27.50
2022-08-07T14:41:04.474Z,27.50
2022-08-07T14:43:56.962Z,27.50
2022-08-07T14:46:32.396Z,27.50
2022-08-07T14:49:56.071Z,27.50
2022-08-07T14:52:04.433Z,27.50
2022-08-07T14:54:43.046Z,27.40
2022-08-07T14:57:19.575Z,27.30
2022-08-07T15:00:03.337Z,27.30
2022-08-07T15:02:39.126Z,27.30
2022-08-07T15:05:20.262Z,27.30
2022-08-07T15:07:56.674Z,27.30
2022-08-07T15:10:30.005Z,27.30
2022-08-07T15:13:05.631Z,27.20
2022-08-07T15:15:40.750Z,27.20
2022-08-07T15:18:33.855Z,27.20
2022-08-07T15:27:04.881Z,27.20
2022-08-07T15:30:09.386Z,27.20
2022-08-07T15:32:39.722Z,27.20
2022-08-07T15:36:04.876Z,27.20
2022-08-07T15:38:30.289Z,27.10
2022-08-07T15:44:07.123Z,27.00
2022-08-07T15:50:04.792Z,27.00
2022-08-07T15:52:30.744Z,26.90
2022-08-07T15:55:03.819Z,26.90
2022-08-07T15:57:47.549Z,26.90
2022-08-07T16:00:31.863Z,26.90
2022-08-07T16:03:22.132Z,26.90
2022-08-07T16:06:00.328Z,26.90
2022-08-07T16:08:38.826Z,26.90
2022-08-07T16:11:29.728Z,26.80
2022-08-07T16:14:12.922Z,26.80
2022-08-07T16:17:02.668Z,26.80
2022-08-07T16:20:05.338Z,26.80
2022-08-07T16:22:55.709Z,26.80
2022-08-07T16:26:01.482Z,26.70
2022-08-07T16:30:07.683Z,26.70
2022-08-07T16:31:57.260Z,26.70
2022-08-07T16:34:48.491Z,26.70
2022-08-07T16:38:06.024Z,26.60
2022-08-07T16:41:25.264Z,26.60
2022-08-07T16:44:46.335Z,26.60
2022-08-07T16:47:56.442Z,26.60
2022-08-07T16:51:21.591Z,26.50
2022-08-07T16:54:19.517Z,26.40
2022-08-07T16:57:03.985Z,26.50
2022-08-07T16:59:52.045Z,26.80
2022-08-07T17:03:10.053Z,27.00
2022-08-07T17:06:19.301Z,27.10
2022-08-07T17:09:10.797Z,26.80
2022-08-07T17:12:05.332Z,26.60
2022-08-07T17:14:53.284Z,26.50
2022-08-07T17:17:46.183Z,26.30
2022-08-07T17:20:31.103Z,26.30
2022-08-07T17:23:13.093Z,26.10
2022-08-07T17:26:02.915Z,26.00
2022-08-07T17:28:49.877Z,26.00
2022-08-07T17:31:35.263Z,26.30
2022-08-07T17:34:34.672Z,26.40
2022-08-07T17:38:05.788Z,26.40
2022-08-07T17:40:20.361Z,26.10
2022-08-07T17:43:17.801Z,25.90
2022-08-07T17:46:00.506Z,25.60
2022-08-07T17:48:40.960Z,25.50
2022-08-07T17:51:21.614Z,25.40
2022-08-07T17:54:06.462Z,25.30
2022-08-07T17:56:49.458Z,25.10
2022-08-07T17:59:26.961Z,25.00
2022-08-07T18:02:14.684Z,25.00
2022-08-07T18:04:55.859Z,24.90
2022-08-07T18:07:43.539Z,24.80
2022-08-07T18:10:32.972Z,24.70
2022-08-07T18:13:40.862Z,24.60
2022-08-07T18:16:31.117Z,24.60
2022-08-07T18:21:08.887Z,24.60
2022-08-07T18:22:14.912Z,24.60
2022-08-07T18:24:51.243Z,24.60
2022-08-07T18:27:44.805Z,24.50
2022-08-07T18:30:32.529Z,24.50
2022-08-07T18:33:58.982Z,24.40
2022-08-07T18:36:53.797Z,24.40
2022-08-07T18:40:06.590Z,24.30
2022-08-07T18:42:53.089Z,24.30
2022-08-07T18:45:43.376Z,24.20
2022-08-07T18:50:05.066Z,24.20
2022-08-07T18:52:33.560Z,24.20
2022-08-07T18:54:27.804Z,24.10
2022-08-07T18:57:30.564Z,24.20
2022-08-07T19:00:32.662Z,24.10
2022-08-07T19:03:12.028Z,24.10
2022-08-07T19:06:03.652Z,24.10
2022-08-07T19:08:52.205Z,24.00
2022-08-07T19:11:35.779Z,24.00
2022-08-07T19:14:19.782Z,24.00
2022-08-07T19:17:05.678Z,24.10
2022-08-07T19:19:57.775Z,24.10
2022-08-07T19:22:38.231Z,24.10
2022-08-07T19:26:22.929Z,24.10
2022-08-07T19:28:56.430Z,24.00
2022-08-07T19:31:43.692Z,24.00
2022-08-07T19:34:14.459Z,23.90
2022-08-07T19:37:16.821Z,23.80
2022-08-07T19:39:56.351Z,23.70
2022-08-07T19:42:30.713Z,23.70
2022-08-07T19:45:08.387Z,23.70
2022-08-07T19:47:42.013Z,23.50
2022-08-07T19:50:41.376Z,23.30
2022-08-07T19:53:02.174Z,23.00
2022-08-07T19:55:58.562Z,22.80
2022-08-07T19:58:33.377Z,22.70
2022-08-07T20:01:02.255Z,22.70
2022-08-07T20:03:39.528Z,22.60
2022-08-07T20:06:15.669Z,22.50
2022-08-07T20:09:02.891Z,22.30
2022-08-07T20:12:22.512Z,22.20
2022-08-07T20:14:31.621Z,22.20
2022-08-07T20:17:06.038Z,22.10
2022-08-07T20:19:48.387Z,22.00
2022-08-07T20:22:34.110Z,22.00
2022-08-07T20:25:12.827Z,21.90
2022-08-07T20:27:58.431Z,21.80
2022-08-07T20:30:33.717Z,21.80
2022-08-07T20:33:09.030Z,21.80
2022-08-07T20:36:03.196Z,21.90
2022-08-07T20:38:36.522Z,21.80
2022-08-07T20:41:28.947Z,21.80
2022-08-07T20:44:12.904Z,21.80
2022-08-07T20:46:45.528Z,21.70
2022-08-07T20:49:58.115Z,21.70
2022-08-07T20:52:16.983Z,21.70
2022-08-07T20:54:53.902Z,21.80
2022-08-07T20:57:28.149Z,21.80
2022-08-07T21:00:09.227Z,21.90
2022-08-07T21:03:01.010Z,21.90
2022-08-07T21:05:50.811Z,21.90
2022-08-07T21:08:47.191Z,21.90
2022-08-07T21:11:40.384Z,22.00
2022-08-07T21:14:33.318Z,22.00
2022-08-07T21:18:02.417Z,22.00
2022-08-07T21:20:05.601Z,22.00
2022-08-07T21:22:44.860Z,22.10
2022-08-07T21:25:30.866Z,22.10
2022-08-07T21:28:47.591Z,22.10
2022-08-07T21:31:16.357Z,22.10
2022-08-07T21:34:04.198Z,22.00
2022-08-07T21:36:50.007Z,21.90
2022-08-07T21:39:45.457Z,21.90
2022-08-07T21:42:42.915Z,21.90
2022-08-07T21:46:08.908Z,22.00
2022-08-07T21:48:27.883Z,22.00
2022-08-07T21:51:19.792Z,21.90
2022-08-07T21:54:01.444Z,21.90
2022-08-07T21:56:47.834Z,21.80
2022-08-07T22:00:04.897Z,21.90
2022-08-07T22:02:46.942Z,21.90
2022-08-07T22:05:44.346Z,21.90
2022-08-07T22:08:18.961Z,21.90
2022-08-07T22:10:53.697Z,21.90
2022-08-07T22:13:52.647Z,21.80
2022-08-07T22:16:39.868Z,21.70
2022-08-07T22:19:20.135Z,21.70
2022-08-07T22:22:10.899Z,21.70
2022-08-07T22:25:03.376Z,21.70
2022-08-07T22:28:20.323Z,21.60
2022-08-07T22:30:41.588Z,21.60
2022-08-07T22:33:15.289Z,21.60
2022-08-07T22:36:00.856Z,21.60
2022-08-07T22:38:48.006Z,21.60
2022-08-07T22:42:02.418Z,21.50
2022-08-07T22:44:18.597Z,21.40
2022-08-07T22:47:43.123Z,21.40
2022-08-07T22:50:37.345Z,21.40
2022-08-07T22:54:07.982Z,21.40
2022-08-07T22:56:39.008Z,21.40
2022-08-07T22:59:52.454Z,21.30
2022-08-07T23:02:42.754Z,21.20
2022-08-07T23:06:09.401Z,21.10
2022-08-07T23:10:01.218Z,21.00
2022-08-07T23:12:21.164Z,21.00
2022-08-07T23:15:21.946Z,21.00
2022-08-07T23:18:27.600Z,21.00
2022-08-07T23:21:30.274Z,21.00
2022-08-07T23:24:45.512Z,21.00
2022-08-07T23:28:22.208Z,21.00
2022-08-07T23:31:06.789Z,21.00
2022-08-07T23:34:34.648Z,21.00
2022-08-07T23:37:29.955Z,20.90
2022-08-07T23:40:22.935Z,20.90
2022-08-07T23:43:37.884Z,20.80
2022-08-07T23:46:36.791Z,20.80
2022-08-07T23:49:59.117Z,20.70
2022-08-07T23:53:12.042Z,20.70
2022-08-07T23:55:47.134Z,20.70
2022-08-07T23:58:34.968Z,20.70
